createdAt,value
2018-04-29T00:01:37.589Z,101185.77
2018-04-29T00:04:05.036Z,101186.37
2018-04-29T00:06:32.494Z,101192.98
2018-04-29T00:08:59.917Z,101200.75
2018-04-29T00:11:27.411Z,101212.34
2018-04-29T00:13:54.830Z,101197.74
2018-04-29T00:16:22.322Z,101194.92
2018-04-29T00:18:49.741Z,101197.56
2018-04-29T00:21:17.202Z,101198.06
2018-04-29T00:23:44.618Z,101200.73
2018-04-29T00:26:12.146Z,101199.89
2018-04-29T00:28:39.606Z,101190.06
2018-04-29T00:31:07.074Z,101190.45
2018-04-29T00:33:34.490Z,101184.16
2018-04-29T00:36:01.916Z,101184.70
2018-04-29T00:38:29.433Z,101181.23
2018-04-29T00:40:56.858Z,101194.47
2018-04-29T00:43:24.338Z,101193.91
2018-04-29T00:45:51.760Z,101192.83
2018-04-29T00:48:19.258Z,101188.11
2018-04-29T00:50:46.682Z,101189.53
2018-04-29T00:53:14.180Z,101186.94
2018-04-29T00:55:41.561Z,101189.39
2018-04-29T00:58:09.009Z,101194.80
2018-04-29T01:00:36.438Z,101195.64
2018-04-29T01:03:03.950Z,101197.14
2018-04-29T01:05:31.454Z,101197.84
2018-04-29T01:07:58.904Z,101194.64
2018-04-29T01:10:26.321Z,101196.72
2018-04-29T01:12:53.769Z,101186.63
2018-04-29T01:15:21.186Z,101184.11
2018-04-29T01:17:48.646Z,101183.20
2018-04-29T01:20:16.058Z,101188.02
2018-04-29T01:22:43.553Z,101195.75
2018-04-29T01:25:11.016Z,101206.90
2018-04-29T01:27:38.670Z,101206.69
2018-04-29T01:30:06.130Z,101205.23
2018-04-29T01:32:33.554Z,101207.91
2018-04-29T01:35:01.047Z,101203.36
2018-04-29T01:37:28.501Z,101198.05
2018-04-29T01:39:56.063Z,101198.38
2018-04-29T01:42:23.486Z,101200.67
2018-04-29T01:44:50.934Z,101200.67
2018-04-29T01:47:18.365Z,101198.75
2018-04-29T01:49:45.810Z,101210.98
2018-04-29T01:52:13.242Z,101210.30
2018-04-29T01:54:40.686Z,101211.95
2018-04-29T01:57:08.161Z,101212.23
2018-04-29T01:59:35.657Z,101218.09
2018-04-29T02:02:03.166Z,101222.30
2018-04-29T02:04:30.614Z,101221.38
2018-04-29T02:06:58.030Z,101225.19
2018-04-29T02:09:25.498Z,101221.92
2018-04-29T02:11:52.909Z,101220.94
2018-04-29T02:14:20.362Z,101217.34
2018-04-29T02:16:47.898Z,101218.70
2018-04-29T02:19:15.306Z,101212.42
2018-04-29T02:21:42.770Z,101212.16
2018-04-29T02:24:10.181Z,101210.50
2018-04-29T02:26:37.742Z,101214.36
2018-04-29T02:29:05.153Z,101225.21
2018-04-29T02:31:32.648Z,101229.17
2018-04-29T02:34:00.074Z,101230.55
2018-04-29T02:36:27.557Z,101229.83
2018-04-29T02:38:54.982Z,101232.19
2018-04-29T02:41:22.473Z,101233.08
2018-04-29T02:43:49.894Z,101230.94
2018-04-29T02:46:17.338Z,101232.26
2018-04-29T02:48:44.842Z,101236.89
2018-04-29T02:51:12.221Z,101222.23
2018-04-29T02:53:39.641Z,101222.47
2018-04-29T02:56:07.126Z,101230.65
2018-04-29T02:58:34.575Z,101227.38
2018-04-29T03:01:02.022Z,101229.39
2018-04-29T03:03:30.397Z,101225.94
2018-04-29T03:05:57.822Z,101226.34
2018-04-29T03:08:25.261Z,101224.63
2018-04-29T03:10:52.785Z,101224.02
2018-04-29T03:13:20.226Z,101211.03
2018-04-29T03:15:47.692Z,101210.88
2018-04-29T03:18:15.145Z,101215.67
2018-04-29T03:20:42.570Z,101210.31
2018-04-29T03:23:10.064Z,101217.52
2018-04-29T03:25:37.522Z,101213.95
2018-04-29T03:28:04.989Z,101211.27
2018-04-29T03:30:32.415Z,101213.80
2018-04-29T03:32:59.871Z,101211.69
2018-04-29T03:35:27.342Z,101224.23
2018-04-29T03:37:54.769Z,101230.88
2018-04-29T03:40:22.205Z,101229.98
2018-04-29T03:42:49.714Z,101229.50
2018-04-29T03:45:18.082Z,101229.34
2018-04-29T03:47:45.507Z,101236.83
2018-04-29T03:50:14.028Z,101233.22
2018-04-29T03:52:41.449Z,101239.01
2018-04-29T03:55:08.903Z,101232.67
2018-04-29T03:57:48.189Z,101227.94
2018-04-29T04:00:27.613Z,101234.44
2018-04-29T04:03:06.828Z,101242.66
2018-04-29T04:05:34.286Z,101247.04
2018-04-29T04:08:01.714Z,101243.87
2018-04-29T04:10:29.226Z,101242.90
2018-04-29T04:12:57.571Z,101234.96
2018-04-29T04:15:25.058Z,101236.69
2018-04-29T04:17:52.504Z,101244.94
2018-04-29T04:20:19.963Z,101249.45
2018-04-29T04:22:47.413Z,101254.16
2018-04-29T04:25:14.863Z,101257.44
2018-04-29T04:27:42.277Z,101246.20
2018-04-29T04:30:09.746Z,101248.92
2018-04-29T04:32:37.161Z,101254.70
2018-04-29T04:35:04.613Z,101251.91
2018-04-29T04:37:32.157Z,101248.66
2018-04-29T04:39:59.614Z,101253.06
2018-04-29T04:42:27.069Z,101233.53
2018-04-29T04:44:54.489Z,101238.59
2018-04-29T04:47:21.933Z,101240.02
2018-04-29T04:49:49.445Z,101245.53
2018-04-29T04:52:16.889Z,101247.67
2018-04-29T04:54:44.309Z,101244.55
2018-04-29T04:57:11.814Z,101238.23
2018-04-29T04:59:39.228Z,101233.87
2018-04-29T05:02:06.734Z,101236.72
2018-04-29T05:04:34.426Z,101236.33
2018-04-29T05:07:01.951Z,101241.17
2018-04-29T05:09:29.401Z,101256.72
2018-04-29T05:11:56.821Z,101256.05
2018-04-29T05:14:24.323Z,101268.72
2018-04-29T05:16:51.773Z,101275.23
2018-04-29T05:19:19.222Z,101280.94
2018-04-29T05:21:46.645Z,101276.86
2018-04-29T05:24:15.070Z,101275.22
2018-04-29T05:26:42.508Z,101269.62
2018-04-29T05:29:09.941Z,101279.09
2018-04-29T05:31:37.367Z,101290.73
2018-04-29T05:34:04.805Z,101300.58
2018-04-29T05:36:32.258Z,101298.28
2018-04-29T05:38:59.706Z,101296.98
2018-04-29T05:41:27.164Z,101300.16
2018-04-29T05:43:54.605Z,101309.95
2018-04-29T05:46:22.963Z,101312.59
2018-04-29T05:48:50.459Z,101312.71
2018-04-29T05:51:20.441Z,101319.61
2018-04-29T05:53:48.030Z,101333.72
2018-04-29T05:56:15.454Z,101311.77
2018-04-29T05:58:42.878Z,101315.77
2018-04-29T06:01:10.318Z,101312.80
2018-04-29T06:03:37.743Z,101314.63
2018-04-29T06:06:05.194Z,101311.20
2018-04-29T06:08:33.594Z,101309.69
2018-04-29T06:11:01.034Z,101317.28
2018-04-29T06:13:29.447Z,101317.58
2018-04-29T06:15:56.914Z,101309.95
2018-04-29T06:18:24.338Z,101309.12
2018-04-29T06:20:51.781Z,101306.69
2018-04-29T06:23:19.193Z,101304.91
2018-04-29T06:25:46.710Z,101311.66
2018-04-29T06:28:14.455Z,101313.48
2018-04-29T06:30:41.897Z,101325.22
2018-04-29T06:33:09.313Z,101326.67
2018-04-29T06:35:36.764Z,101333.88
2018-04-29T06:38:04.190Z,101327.85
2018-04-29T06:40:31.654Z,101319.84
2018-04-29T06:42:59.997Z,101316.72
2018-04-29T06:45:27.418Z,101321.04
2018-04-29T06:47:54.870Z,101317.07
2018-04-29T06:50:22.283Z,101318.67
2018-04-29T06:52:49.756Z,101316.05
2018-04-29T06:55:18.130Z,101313.83
2018-04-29T06:57:45.596Z,101327.51
2018-04-29T07:00:13.046Z,101328.58
2018-04-29T07:02:40.492Z,101324.20
2018-04-29T07:05:07.914Z,101324.34
2018-04-29T07:07:35.353Z,101336.65
2018-04-29T07:10:02.875Z,101327.88
2018-04-29T07:12:30.341Z,101331.01
2018-04-29T07:14:57.799Z,101332.63
2018-04-29T07:17:26.161Z,101342.55
2018-04-29T07:19:53.594Z,101349.89
2018-04-29T07:22:21.080Z,101346.29
2018-04-29T07:24:48.501Z,101333.80
2018-04-29T07:27:15.948Z,101348.58
2018-04-29T07:29:43.438Z,101349.64
2018-04-29T07:32:10.858Z,101347.20
2018-04-29T07:34:38.297Z,101349.89
2018-04-29T07:37:07.674Z,101357.18
2018-04-29T07:39:35.230Z,101356.20
2018-04-29T07:42:02.686Z,101363.12
2018-04-29T07:44:30.132Z,101360.02
2018-04-29T07:46:57.553Z,101360.14
2018-04-29T07:49:25.069Z,101363.03
2018-04-29T07:51:52.439Z,101361.61
2018-04-29T07:54:19.890Z,101360.95
2018-04-29T07:56:47.314Z,101363.48
2018-04-29T07:59:14.762Z,101357.25
2018-04-29T08:01:42.179Z,101358.84
2018-04-29T08:04:09.699Z,101355.69
2018-04-29T08:06:37.150Z,101343.84
2018-04-29T08:09:04.610Z,101348.66
2018-04-29T08:11:32.021Z,101340.36
2018-04-29T08:13:59.514Z,101336.49
2018-04-29T08:16:26.953Z,101333.76
2018-04-29T08:18:54.434Z,101328.63
2018-04-29T08:21:21.921Z,101340.19
2018-04-29T08:23:49.368Z,101344.41
2018-04-29T08:26:16.902Z,101342.60
2018-04-29T08:28:44.362Z,101346.91
2018-04-29T08:31:11.846Z,101345.14
2018-04-29T08:33:39.270Z,101339.95
2018-04-29T08:36:07.643Z,101343.41
2018-04-29T08:38:35.076Z,101344.31
2018-04-29T08:41:02.566Z,101349.22
2018-04-29T08:43:30.024Z,101345.87
2018-04-29T08:45:57.473Z,101345.08
2018-04-29T08:48:24.944Z,101339.05
2018-04-29T08:50:52.394Z,101335.63
2018-04-29T08:53:19.813Z,101334.83
2018-04-29T08:55:47.302Z,101346.39
2018-04-29T08:58:14.729Z,101348.56
2018-04-29T09:00:42.146Z,101347.31
2018-04-29T09:03:09.595Z,101352.63
2018-04-29T09:05:37.142Z,101345.05
2018-04-29T09:08:04.585Z,101353.50
2018-04-29T09:10:32.010Z,101356.45
2018-04-29T09:12:59.513Z,101362.69
2018-04-29T09:15:26.933Z,101368.80
2018-04-29T09:17:54.384Z,101361.95
2018-04-29T09:20:21.809Z,101371.17
2018-04-29T09:22:49.253Z,101369.89
2018-04-29T09:25:16.675Z,101367.47
2018-04-29T09:27:44.150Z,101369.98
2018-04-29T09:30:11.573Z,101368.97
2018-04-29T09:32:39.030Z,101378.01
2018-04-29T09:35:06.455Z,101370.75
2018-04-29T09:37:33.898Z,101374.52
2018-04-29T09:40:01.431Z,101378.09
2018-04-29T09:42:28.877Z,101380.77
2018-04-29T09:44:56.293Z,101386.77
2018-04-29T09:47:24.702Z,101380.39
2018-04-29T09:49:52.122Z,101377.83
2018-04-29T09:52:19.583Z,101378.16
2018-04-29T09:54:47.089Z,101377.27
2018-04-29T09:57:14.563Z,101381.02
2018-04-29T09:59:43.024Z,101370.14
2018-04-29T10:02:11.379Z,101369.72
2018-04-29T10:04:38.834Z,101372.40
2018-04-29T10:07:06.261Z,101359.36
2018-04-29T10:09:33.750Z,101358.86
2018-04-29T10:12:01.138Z,101356.64
2018-04-29T10:14:28.574Z,101359.34
2018-04-29T10:16:56.174Z,101357.39
2018-04-29T10:19:23.637Z,101358.59
2018-04-29T10:21:51.066Z,101357.59
2018-04-29T10:24:18.518Z,101355.41
2018-04-29T10:26:45.943Z,101353.64
2018-04-29T10:29:13.386Z,101345.70
2018-04-29T10:31:40.805Z,101349.48
2018-04-29T10:34:08.250Z,101350.06
2018-04-29T10:36:35.683Z,101357.88
2018-04-29T10:39:03.137Z,101356.38
2018-04-29T10:41:30.554Z,101351.77
2018-04-29T10:43:58.075Z,101355.95
2018-04-29T10:46:25.490Z,101356.77
2018-04-29T10:48:52.910Z,101352.72
2018-04-29T10:51:20.449Z,101346.88
2018-04-29T10:53:47.813Z,101349.78
2018-04-29T10:56:15.266Z,101340.58
2018-04-29T10:58:42.738Z,101338.23
2018-04-29T11:01:10.257Z,101336.58
2018-04-29T11:03:37.723Z,101332.34
2018-04-29T11:06:05.280Z,101329.25
2018-04-29T11:08:32.840Z,101336.08
2018-04-29T11:11:00.286Z,101326.22
2018-04-29T11:13:27.707Z,101323.95
2018-04-29T11:15:55.206Z,101318.30
2018-04-29T11:18:22.626Z,101312.67
2018-04-29T11:20:50.098Z,101318.52
2018-04-29T11:23:18.459Z,101312.13
2018-04-29T11:25:45.913Z,101305.92
2018-04-29T11:28:13.411Z,101317.94
2018-04-29T11:30:40.865Z,101314.09
2018-04-29T11:33:08.310Z,101307.34
2018-04-29T11:35:35.725Z,101299.14
2018-04-29T11:38:03.186Z,101302.85
2018-04-29T11:40:30.647Z,101298.34
2018-04-29T11:42:58.064Z,101281.00
2018-04-29T11:45:25.477Z,101272.91
2018-04-29T11:47:52.954Z,101286.30
2018-04-29T11:50:20.425Z,101293.41
2018-04-29T11:52:47.978Z,101300.48
2018-04-29T11:55:15.406Z,101291.27
2018-04-29T11:57:42.853Z,101296.61
2018-04-29T12:00:10.282Z,101291.23
2018-04-29T12:02:37.753Z,101287.13
2018-04-29T12:05:05.178Z,101281.48
2018-04-29T12:07:32.626Z,101294.60
2018-04-29T12:10:00.065Z,101283.99
2018-04-29T12:12:27.517Z,101290.45
2018-04-29T12:14:54.939Z,101289.54
2018-04-29T12:17:23.338Z,101287.60
2018-04-29T12:19:50.794Z,101286.34
2018-04-29T12:22:18.218Z,101271.56
2018-04-29T12:24:45.672Z,101268.02
2018-04-29T12:27:13.102Z,101271.03
2018-04-29T12:29:40.561Z,101272.83
2018-04-29T12:32:07.985Z,101280.86
2018-04-29T12:34:35.434Z,101284.06
2018-04-29T12:37:02.857Z,101285.27
2018-04-29T12:39:30.301Z,101272.97
2018-04-29T12:41:57.830Z,101269.58
2018-04-29T12:44:25.286Z,101267.73
2018-04-29T12:46:52.742Z,101283.20
2018-04-29T12:49:20.298Z,101290.83
2018-04-29T12:51:47.750Z,101278.02
2018-04-29T12:54:15.206Z,101275.34
2018-04-29T12:56:42.630Z,101281.36
2018-04-29T12:59:10.054Z,101281.98
2018-04-29T13:01:37.605Z,101281.72
2018-04-29T13:04:05.025Z,101273.50
2018-04-29T13:06:32.470Z,101260.09
2018-04-29T13:08:59.890Z,101240.48
2018-04-29T13:11:27.346Z,101229.78
2018-04-29T13:13:54.780Z,101237.27
2018-04-29T13:16:23.137Z,101247.88
2018-04-29T13:18:50.602Z,101246.87
2018-04-29T13:21:18.046Z,101239.88
2018-04-29T13:23:45.465Z,101232.17
2018-04-29T13:26:12.922Z,101230.47
2018-04-29T13:28:40.345Z,101223.35
2018-04-29T13:31:07.785Z,101218.69
2018-04-29T13:33:35.230Z,101219.34
2018-04-29T13:36:02.694Z,101216.75
2018-04-29T13:38:30.141Z,101222.87
2018-04-29T13:40:57.563Z,101222.08
2018-04-29T13:43:25.070Z,101225.73
2018-04-29T13:45:52.513Z,101220.58
2018-04-29T13:48:19.978Z,101217.17
2018-04-29T13:50:47.408Z,101205.60
2018-04-29T13:53:14.865Z,101200.71
2018-04-29T13:55:42.353Z,101208.88
2018-04-29T13:58:10.722Z,101217.88
2018-04-29T14:00:38.290Z,101206.98
2018-04-29T14:03:05.735Z,101207.76
2018-04-29T14:05:34.092Z,101217.85
2018-04-29T14:08:01.569Z,101224.64
2018-04-29T14:10:29.025Z,101229.03
2018-04-29T14:12:57.427Z,101218.02
2018-04-29T14:15:24.869Z,101207.34
2018-04-29T14:17:52.294Z,101203.50
2018-04-29T14:20:19.780Z,101199.39
2018-04-29T14:22:47.197Z,101197.55
2018-04-29T14:25:14.646Z,101202.44
2018-04-29T14:27:43.086Z,101184.59
2018-04-29T14:30:10.524Z,101185.63
2018-04-29T14:32:37.954Z,101174.93
2018-04-29T14:35:05.444Z,101168.27
2018-04-29T14:37:32.857Z,101167.27
2018-04-29T14:40:00.327Z,101164.05
2018-04-29T14:42:27.741Z,101158.56
2018-04-29T14:44:55.274Z,101155.64
2018-04-29T14:47:22.717Z,101152.75
2018-04-29T14:49:50.139Z,101149.97
2018-04-29T14:52:17.577Z,101138.89
2018-04-29T14:54:45.003Z,101138.73
2018-04-29T14:57:12.445Z,101150.00
2018-04-29T14:59:39.868Z,101135.44
2018-04-29T15:02:07.326Z,101133.91
2018-04-29T15:04:34.750Z,101126.51
2018-04-29T15:07:02.190Z,101131.77
2018-04-29T15:09:29.619Z,101138.48
2018-04-29T15:11:57.073Z,101134.75
2018-04-29T15:14:27.206Z,101116.70
2018-04-29T15:16:54.654Z,101111.40
2018-04-29T15:19:22.092Z,101111.40
2018-04-29T15:21:49.585Z,101118.25
2018-04-29T15:24:17.002Z,101123.88
2018-04-29T15:26:44.422Z,101124.58
2018-04-29T15:29:11.949Z,101129.70
2018-04-29T15:31:39.372Z,101130.94
2018-04-29T15:34:06.834Z,101119.74
2018-04-29T15:36:34.250Z,101110.80
2018-04-29T15:39:01.693Z,101116.84
2018-04-29T15:41:29.109Z,101119.21
2018-04-29T15:43:56.585Z,101119.64
2018-04-29T15:46:24.077Z,101108.39
2018-04-29T15:48:51.486Z,101111.14
2018-04-29T15:51:18.902Z,101115.86
2018-04-29T15:53:46.346Z,101121.97
2018-04-29T15:56:13.870Z,101094.23
2018-04-29T15:58:41.298Z,101097.66
2018-04-29T16:01:08.778Z,101110.16
2018-04-29T16:03:36.267Z,101107.57
2018-04-29T16:06:03.706Z,101109.84
2018-04-29T16:08:31.127Z,101096.23
2018-04-29T16:10:58.578Z,101067.97
2018-04-29T16:13:26.068Z,101050.23
2018-04-29T16:15:53.506Z,101039.08
2018-04-29T16:18:20.984Z,101038.38
2018-04-29T16:20:48.425Z,101039.64
2018-04-29T16:23:15.841Z,101050.98
2018-04-29T16:25:43.289Z,101053.98
2018-04-29T16:28:10.711Z,101050.41
2018-04-29T16:30:38.168Z,101042.64
2018-04-29T16:33:05.586Z,101042.17
2018-04-29T16:35:33.082Z,101040.34
2018-04-29T16:38:00.695Z,101050.91
2018-04-29T16:40:28.070Z,101054.48
2018-04-29T16:42:55.518Z,101046.27
2018-04-29T16:45:22.933Z,101042.55
2018-04-29T16:47:50.378Z,101049.59
2018-04-29T16:50:17.850Z,101043.11
2018-04-29T16:52:45.301Z,101043.05
2018-04-29T16:55:12.722Z,101038.45
2018-04-29T16:57:40.179Z,101034.33
2018-04-29T17:00:07.601Z,101021.73
2018-04-29T17:02:35.102Z,101025.14
2018-04-29T17:05:02.513Z,101031.19
2018-04-29T17:07:29.962Z,101027.68
2018-04-29T17:09:58.351Z,101021.62
2018-04-29T17:12:25.793Z,101005.61
2018-04-29T17:14:53.220Z,100999.06
2018-04-29T17:17:20.657Z,100995.55
2018-04-29T17:19:48.079Z,101003.06
2018-04-29T17:22:15.774Z,101000.00
2018-04-29T17:24:43.237Z,100992.51
2018-04-29T17:27:10.653Z,100996.48
2018-04-29T17:29:38.099Z,100991.82
2018-04-29T17:32:05.519Z,100990.08
2018-04-29T17:34:32.957Z,100990.25
2018-04-29T17:37:00.427Z,100981.52
2018-04-29T17:39:27.881Z,100987.34
2018-04-29T17:41:55.307Z,100994.97
2018-04-29T17:44:22.785Z,100996.78
2018-04-29T17:46:50.342Z,100998.43
2018-04-29T17:49:18.694Z,100989.41
2018-04-29T17:51:46.282Z,100992.77
2018-04-29T17:54:13.742Z,101002.60
2018-04-29T17:56:42.130Z,100990.16
2018-04-29T17:59:09.582Z,100993.95
2018-04-29T18:01:37.929Z,100985.87
2018-04-29T18:04:05.406Z,100986.88
2018-04-29T18:06:32.829Z,100987.73
2018-04-29T18:09:00.298Z,100985.25
2018-04-29T18:11:27.726Z,100986.18
2018-04-29T18:13:55.149Z,100987.94
2018-04-29T18:16:23.518Z,100971.41
2018-04-29T18:18:51.853Z,100960.62
2018-04-29T18:21:19.382Z,100950.42
2018-04-29T18:23:46.756Z,100948.86
2018-04-29T18:26:14.202Z,100958.79
2018-04-29T18:28:41.634Z,100957.47
2018-04-29T18:31:09.170Z,100952.53
2018-04-29T18:33:36.733Z,100956.02
2018-04-29T18:36:04.294Z,100952.57
2018-04-29T18:38:31.723Z,100956.34
2018-04-29T18:40:59.166Z,100962.37
2018-04-29T18:43:26.591Z,100964.79
2018-04-29T18:45:54.038Z,100959.52
2018-04-29T18:48:21.479Z,100960.80
2018-04-29T18:50:49.028Z,100967.81
2018-04-29T18:53:16.383Z,100961.02
2018-04-29T18:55:43.826Z,100973.22
2018-04-29T18:58:11.248Z,100966.64
2018-04-29T19:00:38.665Z,100968.55
2018-04-29T19:03:06.112Z,100960.70
2018-04-29T19:08:35.447Z,100963.12
2018-04-29T19:11:02.913Z,100962.87
2018-04-29T19:13:30.329Z,100950.13
2018-04-29T19:15:57.746Z,100950.99
2018-04-29T19:18:25.208Z,100947.98
2018-04-29T19:20:52.632Z,100939.86
2018-04-29T19:23:20.074Z,100934.94
2018-04-29T19:25:47.501Z,100937.23
2018-04-29T19:28:14.962Z,100942.17
2018-04-29T19:30:42.438Z,100948.50
2018-04-29T19:33:09.885Z,100937.80
2018-04-29T19:35:37.315Z,100936.84
2018-04-29T19:38:04.750Z,100933.11
2018-04-29T19:40:32.261Z,100940.14
2018-04-29T19:42:59.714Z,100945.73
2018-04-29T19:45:27.182Z,100934.67
2018-04-29T19:47:54.627Z,100934.66
2018-04-29T19:50:22.055Z,100923.25
2018-04-29T19:52:49.519Z,100920.81
2018-04-29T19:55:16.942Z,100917.45
2018-04-29T19:57:45.381Z,100917.28
2018-04-29T20:00:12.833Z,100911.42
2018-04-29T20:02:40.270Z,100901.90
2018-04-29T20:05:08.625Z,100901.50
2018-04-29T20:07:36.141Z,100906.44
2018-04-29T20:10:03.586Z,100898.03
2018-04-29T20:12:31.234Z,100894.94
2018-04-29T20:14:59.006Z,100888.26
2018-04-29T20:17:26.876Z,100885.77
2018-04-29T20:19:54.679Z,100886.07
2018-04-29T20:22:22.116Z,100878.53
2018-04-29T20:24:49.564Z,100875.21
2018-04-29T20:27:17.013Z,100879.17
2018-04-29T20:29:44.458Z,100872.52
2018-04-29T20:32:11.894Z,100875.86
2018-04-29T20:34:41.326Z,100873.48
2018-04-29T20:37:08.741Z,100872.14
2018-04-29T20:39:36.246Z,100872.97
2018-04-29T20:42:03.690Z,100863.24
2018-04-29T20:44:31.105Z,100857.30
2018-04-29T20:46:58.590Z,100862.05
2018-04-29T20:49:26.010Z,100858.42
2018-04-29T20:51:53.458Z,100857.39
2018-04-29T20:54:20.993Z,100849.40
2018-04-29T20:56:48.426Z,100845.39
2018-04-29T20:59:15.846Z,100841.49
2018-04-29T21:01:43.313Z,100846.50
2018-04-29T21:04:11.698Z,100844.47
2018-04-29T21:06:39.149Z,100838.77
2018-04-29T21:09:06.573Z,100844.43
2018-04-29T21:11:34.433Z,100837.25
2018-04-29T21:14:01.857Z,100832.21
2018-04-29T21:16:29.283Z,100834.34
2018-04-29T21:18:56.742Z,100827.48
2018-04-29T21:21:25.122Z,100820.30
2018-04-29T21:23:52.573Z,100812.39
2018-04-29T21:26:20.084Z,100810.57
2018-04-29T21:28:47.526Z,100810.95
2018-04-29T21:31:14.945Z,100808.27
2018-04-29T21:33:42.407Z,100802.74
2018-04-29T21:36:09.826Z,100800.05
2018-04-29T21:38:37.265Z,100801.11
2018-04-29T21:41:05.597Z,100797.18
2018-04-29T21:43:33.081Z,100790.91
2018-04-29T21:46:01.434Z,100788.80
2018-04-29T21:48:28.926Z,100792.00
2018-04-29T21:50:56.345Z,100786.97
2018-04-29T21:53:23.813Z,100785.66
2018-04-29T21:55:51.242Z,100783.69
2018-04-29T21:58:18.749Z,100772.09
2018-04-29T22:00:47.131Z,100764.09
2018-04-29T22:03:14.586Z,100754.70
2018-04-29T22:05:42.042Z,100753.44
2018-04-29T22:08:09.530Z,100757.71
2018-04-29T22:10:36.976Z,100749.88
2018-04-29T22:13:04.452Z,100741.05
2018-04-29T22:15:31.903Z,100741.98
2018-04-29T22:17:59.361Z,100736.25
2018-04-29T22:20:27.873Z,100731.05
2018-04-29T22:22:55.303Z,100732.19
2018-04-29T22:25:22.770Z,100719.98
2018-04-29T22:27:50.222Z,100707.69
2018-04-29T22:30:17.637Z,100709.08
2018-04-29T22:32:46.010Z,100711.83
2018-04-29T22:35:13.506Z,100707.83
2018-04-29T22:37:40.986Z,100697.32
2018-04-29T22:40:08.401Z,100697.07
2018-04-29T22:42:35.855Z,100693.97
2018-04-29T22:45:03.286Z,100693.94
2018-04-29T22:47:30.733Z,100693.52
2018-04-29T22:49:58.166Z,100686.05
2018-04-29T22:52:26.534Z,100691.84
2018-04-29T22:54:54.049Z,100688.54
2018-04-29T22:57:21.577Z,100689.23
2018-04-29T22:59:48.994Z,100682.22
2018-04-29T23:02:16.426Z,100678.09
2018-04-29T23:04:43.878Z,100674.83
2018-04-29T23:07:11.314Z,100677.13
2018-04-29T23:09:38.757Z,100677.73
2018-04-29T23:12:06.250Z,100677.94
2018-04-29T23:14:33.697Z,100668.16
2018-04-29T23:17:01.126Z,100667.06
2018-04-29T23:19:28.617Z,100671.56
2018-04-29T23:21:56.185Z,100669.38
2018-04-29T23:24:23.641Z,100659.83
2018-04-29T23:26:54.025Z,100661.91
2018-04-29T23:29:21.465Z,100654.72
2018-04-29T23:31:48.978Z,100662.23
2018-04-29T23:34:17.343Z,100660.13
2018-04-29T23:36:44.766Z,100655.95
2018-04-29T23:39:13.187Z,100648.98
2018-04-29T23:41:40.606Z,100637.72
2018-04-29T23:44:08.034Z,100632.11
2018-04-29T23:46:35.498Z,100632.69
2018-04-29T23:49:02.910Z,100634.16
2018-04-29T23:51:30.358Z,100635.12
2018-04-29T23:53:57.773Z,100625.42
2018-04-29T23:56:25.230Z,100618.73
2018-04-29T23:58:52.646Z,100618.40
